createdAt,value
2018-02-18T00:00:27.557Z,69.61
2018-02-18T00:02:53.389Z,70.02
2018-02-18T00:05:19.156Z,69.19
2018-02-18T00:07:44.939Z,71.58
2018-02-18T00:10:10.714Z,71.19
2018-02-18T00:12:36.546Z,70.61
2018-02-18T00:15:05.411Z,71.17
2018-02-18T00:17:31.307Z,72.97
2018-02-18T00:19:57.087Z,73.72
2018-02-18T00:22:22.855Z,72.95
2018-02-18T00:24:48.668Z,73.17
2018-02-18T00:27:14.443Z,72.75
2018-02-18T00:29:40.222Z,72.13
2018-02-18T00:32:06.006Z,71.12
2018-02-18T00:34:31.787Z,70.96
2018-02-18T00:36:57.583Z,70.76
2018-02-18T00:39:23.401Z,70.46
2018-02-18T00:41:49.196Z,71.26
2018-02-18T00:44:14.986Z,70.72
2018-02-18T00:46:40.794Z,70.33
2018-02-18T00:49:06.566Z,70.49
2018-02-18T00:51:32.344Z,70.24
2018-02-18T00:53:58.138Z,71.06
2018-02-18T00:56:23.928Z,71.70
2018-02-18T00:58:49.732Z,70.40
2018-02-18T01:01:15.523Z,70.60
2018-02-18T01:03:41.316Z,70.72
2018-02-18T01:06:07.368Z,70.79
2018-02-18T01:08:33.194Z,71.31
2018-02-18T01:10:58.944Z,71.60
2018-02-18T01:13:24.784Z,71.52
2018-02-18T01:15:50.562Z,71.36
2018-02-18T01:18:16.345Z,71.43
2018-02-18T01:20:42.151Z,70.70
2018-02-18T01:23:07.928Z,71.16
2018-02-18T01:25:33.720Z,71.25
2018-02-18T01:27:59.541Z,71.14
2018-02-18T01:30:25.322Z,70.93
2018-02-18T01:32:51.101Z,71.36
2018-02-18T01:35:17.146Z,71.62
2018-02-18T01:37:42.927Z,72.17
2018-02-18T01:40:08.718Z,72.53
2018-02-18T01:42:34.543Z,72.43
2018-02-18T01:45:00.335Z,72.51
2018-02-18T01:47:26.114Z,72.60
2018-02-18T01:49:51.944Z,73.94
2018-02-18T01:52:17.737Z,73.97
2018-02-18T01:54:43.522Z,73.78
2018-02-18T01:57:09.327Z,74.16
2018-02-18T01:59:35.104Z,74.25
2018-02-18T02:02:00.887Z,73.62
2018-02-18T02:04:26.686Z,74.05
2018-02-18T02:06:52.483Z,74.34
2018-02-18T02:09:18.294Z,74.17
2018-02-18T02:11:44.110Z,73.87
2018-02-18T02:14:09.900Z,74.59
2018-02-18T02:16:35.735Z,75.39
2018-02-18T02:19:01.534Z,75.83
2018-02-18T02:21:27.311Z,75.15
2018-02-18T02:23:53.102Z,74.85
2018-02-18T02:26:19.247Z,75.15
2018-02-18T02:28:45.024Z,74.28
2018-02-18T02:31:10.824Z,74.52
2018-02-18T02:33:36.664Z,74.86
2018-02-18T02:36:02.476Z,74.28
2018-02-18T02:38:28.286Z,74.81
2018-02-18T02:40:54.272Z,74.55
2018-02-18T02:43:20.047Z,75.09
2018-02-18T02:45:45.824Z,76.08
2018-02-18T02:48:11.649Z,76.19
2018-02-18T02:50:37.430Z,75.84
2018-02-18T02:53:03.223Z,76.42
2018-02-18T02:55:29.042Z,76.68
2018-02-18T02:57:54.835Z,76.13
2018-02-18T03:00:20.619Z,76.20
2018-02-18T03:02:46.426Z,75.61
2018-02-18T03:05:12.220Z,75.93
2018-02-18T03:07:37.998Z,76.12
2018-02-18T03:10:03.802Z,76.16
2018-02-18T03:12:29.579Z,76.39
2018-02-18T03:14:55.355Z,77.33
2018-02-18T03:17:21.156Z,80.36
2018-02-18T03:19:46.948Z,81.81
2018-02-18T03:22:12.738Z,79.85
2018-02-18T03:24:38.520Z,82.97
2018-02-18T03:27:04.324Z,81.64
2018-02-18T03:29:30.437Z,77.39
2018-02-18T03:31:56.212Z,77.42
2018-02-18T03:34:21.991Z,80.78
2018-02-18T03:36:47.800Z,81.70
2018-02-18T03:39:13.591Z,77.40
2018-02-18T03:41:39.359Z,80.48
2018-02-18T03:44:05.179Z,78.25
2018-02-18T03:46:31.010Z,76.53
2018-02-18T03:48:56.795Z,78.61
2018-02-18T03:51:22.607Z,77.99
2018-02-18T03:53:48.399Z,79.96
2018-02-18T03:56:14.181Z,80.14
2018-02-18T03:58:40.256Z,77.45
2018-02-18T04:01:06.039Z,78.57
2018-02-18T04:03:31.827Z,78.94
2018-02-18T04:05:57.637Z,79.17
2018-02-18T04:08:23.414Z,79.36
2018-02-18T04:10:49.201Z,79.49
2018-02-18T04:13:15.007Z,79.31
2018-02-18T04:15:40.786Z,79.26
2018-02-18T04:18:06.563Z,79.24
2018-02-18T04:20:32.370Z,79.45
2018-02-18T04:22:58.203Z,79.72
2018-02-18T04:25:23.982Z,79.48
2018-02-18T04:27:49.759Z,79.33
2018-02-18T04:30:15.551Z,79.53
2018-02-18T04:32:41.335Z,79.66
2018-02-18T04:35:07.123Z,79.83
2018-02-18T04:37:32.932Z,79.93
2018-02-18T04:39:58.723Z,79.92
2018-02-18T04:42:24.502Z,79.66
2018-02-18T04:44:50.288Z,79.71
2018-02-18T04:47:16.092Z,79.73
2018-02-18T04:49:41.867Z,79.82
2018-02-18T04:52:07.662Z,80.01
2018-02-18T04:54:33.462Z,80.06
2018-02-18T04:56:59.247Z,80.08
2018-02-18T04:59:25.047Z,80.04
2018-02-18T05:01:50.876Z,79.60
2018-02-18T05:04:16.658Z,79.37
2018-02-18T05:06:42.472Z,79.45
2018-02-18T05:09:08.254Z,79.41
2018-02-18T05:11:34.027Z,79.46
2018-02-18T05:13:59.834Z,78.97
2018-02-18T05:16:25.614Z,79.68
2018-02-18T05:18:51.399Z,79.05
2018-02-18T05:21:17.171Z,79.54
2018-02-18T05:23:42.957Z,80.16
2018-02-18T05:26:08.776Z,82.24
2018-02-18T05:28:34.549Z,82.55
2018-02-18T05:31:00.338Z,81.18
2018-02-18T05:33:26.154Z,80.57
2018-02-18T05:35:51.947Z,81.30
2018-02-18T05:38:18.631Z,79.84
2018-02-18T05:40:44.455Z,79.83
2018-02-18T05:43:10.258Z,80.35
2018-02-18T05:45:36.034Z,81.15
2018-02-18T05:48:01.839Z,80.51
2018-02-18T05:50:27.636Z,81.35
2018-02-18T05:52:53.435Z,80.11
2018-02-18T05:55:19.237Z,80.53
2018-02-18T05:57:45.048Z,83.35
2018-02-18T06:00:10.831Z,73.45
2018-02-18T06:02:36.628Z,73.47
2018-02-18T06:05:02.805Z,73.44
2018-02-18T06:07:28.586Z,71.93
2018-02-18T06:09:54.462Z,69.90
2018-02-18T06:12:20.218Z,69.96
2018-02-18T06:14:45.982Z,70.21
2018-02-18T06:17:11.897Z,68.28
2018-02-18T06:19:37.698Z,70.26
2018-02-18T06:22:03.480Z,69.80
2018-02-18T06:24:29.286Z,70.22
2018-02-18T06:26:55.067Z,69.09
2018-02-18T06:29:20.843Z,68.32
2018-02-18T06:31:46.637Z,71.57
2018-02-18T06:34:12.424Z,69.43
2018-02-18T06:36:38.202Z,68.91
2018-02-18T06:39:04.016Z,67.67
2018-02-18T06:41:29.798Z,67.42
2018-02-18T06:43:55.583Z,68.78
2018-02-18T06:46:21.375Z,68.87
2018-02-18T06:48:47.175Z,67.13
2018-02-18T06:51:12.979Z,65.58
2018-02-18T06:53:38.771Z,65.91
2018-02-18T06:56:04.544Z,67.72
2018-02-18T06:58:30.698Z,72.57
2018-02-18T07:00:56.579Z,75.25
2018-02-18T07:03:22.359Z,76.84
2018-02-18T07:05:48.167Z,77.72
2018-02-18T07:08:13.956Z,88.42
2018-02-18T07:10:39.738Z,83.16
2018-02-18T07:13:05.527Z,86.43
2018-02-18T07:15:31.323Z,83.26
2018-02-18T07:17:57.102Z,80.83
2018-02-18T07:20:23.071Z,81.97
2018-02-18T07:22:48.847Z,83.22
2018-02-18T07:25:14.633Z,81.42
2018-02-18T07:27:40.729Z,80.45
2018-02-18T07:30:06.510Z,80.97
2018-02-18T07:32:32.287Z,80.84
2018-02-18T07:34:58.386Z,81.35
2018-02-18T07:37:24.185Z,82.26
2018-02-18T07:39:49.947Z,80.48
2018-02-18T07:42:15.766Z,80.29
2018-02-18T07:44:41.542Z,80.84
2018-02-18T07:47:07.338Z,79.52
2018-02-18T07:49:33.118Z,80.46
2018-02-18T07:51:59.146Z,80.05
2018-02-18T07:54:24.956Z,79.11
2018-02-18T07:56:50.769Z,80.33
2018-02-18T07:59:16.554Z,79.79
2018-02-18T08:01:42.348Z,77.93
2018-02-18T08:04:08.315Z,79.26
2018-02-18T08:06:34.155Z,77.57
2018-02-18T08:08:59.947Z,77.49
2018-02-18T08:11:25.748Z,77.54
2018-02-18T08:13:51.531Z,76.08
2018-02-18T08:16:17.330Z,75.83
2018-02-18T08:18:43.126Z,76.59
2018-02-18T08:21:08.899Z,75.39
2018-02-18T08:23:35.780Z,75.09
2018-02-18T08:26:01.656Z,75.08
2018-02-18T08:28:27.620Z,74.87
2018-02-18T08:30:53.430Z,74.46
2018-02-18T08:33:19.310Z,73.26
2018-02-18T08:35:45.165Z,72.79
2018-02-18T08:38:10.940Z,73.72
2018-02-18T08:40:36.803Z,73.02
2018-02-18T08:43:02.611Z,72.79
2018-02-18T08:45:29.236Z,71.93
2018-02-18T08:47:55.054Z,72.67
2018-02-18T08:50:21.009Z,71.36
2018-02-18T08:52:46.814Z,70.91
2018-02-18T08:55:12.751Z,70.39
2018-02-18T08:57:39.507Z,70.33
2018-02-18T09:00:05.298Z,69.68
2018-02-18T09:02:31.087Z,69.22
2018-02-18T09:04:56.890Z,70.31
2018-02-18T09:07:22.671Z,69.37
2018-02-18T09:09:48.476Z,67.62
2018-02-18T09:12:16.143Z,67.52
2018-02-18T09:14:41.995Z,67.50
2018-02-18T09:17:08.054Z,66.60
2018-02-18T09:19:33.861Z,66.33
2018-02-18T09:22:00.168Z,66.36
2018-02-18T09:24:25.950Z,66.58
2018-02-18T09:26:52.378Z,64.93
2018-02-18T09:29:19.227Z,65.18
2018-02-18T09:31:45.025Z,64.47
2018-02-18T09:34:12.435Z,64.54
2018-02-18T09:36:39.286Z,64.79
2018-02-18T09:39:05.070Z,63.56
2018-02-18T09:41:31.590Z,63.57
2018-02-18T09:43:57.498Z,63.59
2018-02-18T09:46:24.557Z,63.74
2018-02-18T09:48:50.478Z,63.62
2018-02-18T09:51:17.278Z,63.87
2018-02-18T09:53:43.547Z,63.35
2018-02-18T09:56:09.336Z,63.86
2018-02-18T09:58:35.699Z,62.22
2018-02-18T10:01:01.715Z,62.57
2018-02-18T10:03:27.713Z,62.51
2018-02-18T10:05:53.872Z,63.06
2018-02-18T10:08:20.763Z,62.33
2018-02-18T10:10:47.350Z,63.28
2018-02-18T10:13:13.310Z,63.07
2018-02-18T10:15:40.479Z,62.21
2018-02-18T10:18:06.957Z,62.10
2018-02-18T10:20:32.907Z,64.00
2018-02-18T10:22:58.712Z,62.33
2018-02-18T10:25:24.502Z,62.55
2018-02-18T10:27:50.287Z,62.39
2018-02-18T10:30:16.342Z,61.54
2018-02-18T10:32:42.133Z,61.72
2018-02-18T10:35:07.924Z,62.02
2018-02-18T10:37:33.738Z,61.34
2018-02-18T10:39:59.513Z,61.38
2018-02-18T10:42:25.315Z,61.50
2018-02-18T10:44:51.115Z,60.77
2018-02-18T10:47:16.899Z,61.12
2018-02-18T10:49:42.670Z,61.55
2018-02-18T10:52:08.703Z,62.42
2018-02-18T10:54:34.491Z,62.20
2018-02-18T10:57:00.262Z,62.23
2018-02-18T10:59:26.063Z,61.88
2018-02-18T11:01:51.853Z,62.78
2018-02-18T11:04:17.652Z,62.50
2018-02-18T11:06:43.451Z,62.25
2018-02-18T11:09:09.239Z,62.00
2018-02-18T11:11:35.026Z,62.31
2018-02-18T11:14:00.823Z,61.74
2018-02-18T11:16:26.614Z,61.65
2018-02-18T11:18:52.394Z,61.54
2018-02-18T11:21:18.193Z,61.70
2018-02-18T11:23:43.983Z,61.76
2018-02-18T11:26:09.763Z,61.59
2018-02-18T11:28:35.722Z,61.50
2018-02-18T11:31:01.511Z,61.46
2018-02-18T11:33:27.287Z,61.88
2018-02-18T11:35:53.127Z,61.95
2018-02-18T11:38:19.046Z,61.15
2018-02-18T11:40:44.834Z,61.45
2018-02-18T11:43:10.603Z,62.45
2018-02-18T11:45:36.408Z,61.66
2018-02-18T11:48:02.184Z,60.90
2018-02-18T11:50:27.981Z,60.32
2018-02-18T11:52:53.787Z,59.79
2018-02-18T11:55:19.562Z,59.95
2018-02-18T11:57:45.379Z,60.66
2018-02-18T12:00:11.175Z,60.18
2018-02-18T12:02:36.959Z,59.85
2018-02-18T12:05:02.745Z,59.22
2018-02-18T12:07:28.544Z,59.71
2018-02-18T12:09:54.570Z,59.03
2018-02-18T12:12:20.379Z,59.44
2018-02-18T12:14:46.461Z,59.72
2018-02-18T12:17:12.283Z,59.65
2018-02-18T12:19:38.153Z,63.38
2018-02-18T12:22:03.966Z,57.12
2018-02-18T12:24:29.743Z,57.54
2018-02-18T12:26:55.826Z,56.76
2018-02-18T12:29:21.654Z,57.15
2018-02-18T12:31:47.433Z,57.23
2018-02-18T12:34:13.261Z,56.73
2018-02-18T12:36:39.046Z,57.10
2018-02-18T12:39:04.845Z,56.81
2018-02-18T12:41:30.811Z,57.03
2018-02-18T12:43:56.603Z,57.03
2018-02-18T12:46:22.411Z,57.29
2018-02-18T12:48:48.407Z,57.03
2018-02-18T12:51:14.190Z,57.29
2018-02-18T12:53:39.999Z,56.46
2018-02-18T12:56:07.315Z,56.14
2018-02-18T12:58:33.348Z,58.27
2018-02-18T13:00:59.172Z,55.74
2018-02-18T13:03:24.959Z,55.35
2018-02-18T13:05:50.736Z,53.63
2018-02-18T13:08:16.523Z,53.74
2018-02-18T13:10:42.327Z,54.04
2018-02-18T13:13:08.112Z,52.50
2018-02-18T13:15:34.240Z,52.76
2018-02-18T13:18:00.072Z,53.50
2018-02-18T13:20:25.852Z,54.39
2018-02-18T13:22:51.639Z,52.84
2018-02-18T13:25:17.446Z,51.91
2018-02-18T13:27:43.221Z,51.70
2018-02-18T13:30:08.997Z,52.90
2018-02-18T13:32:34.852Z,51.14
2018-02-18T13:35:00.591Z,52.45
2018-02-18T13:37:26.411Z,53.51
2018-02-18T13:39:52.245Z,54.43
2018-02-18T13:42:18.041Z,52.23
2018-02-18T13:44:44.782Z,53.87
2018-02-18T13:47:10.610Z,54.85
2018-02-18T13:49:36.453Z,55.20
2018-02-18T13:52:02.440Z,55.95
2018-02-18T13:54:28.244Z,55.96
2018-02-18T13:56:54.061Z,56.44
2018-02-18T13:59:20.754Z,57.04
2018-02-18T14:01:46.591Z,57.28
2018-02-18T14:04:12.582Z,57.62
2018-02-18T14:06:38.407Z,57.25
2018-02-18T14:09:04.976Z,57.15
2018-02-18T14:11:30.798Z,57.07
2018-02-18T14:13:56.640Z,57.69
2018-02-18T14:16:22.880Z,56.71
2018-02-18T14:18:48.737Z,56.49
2018-02-18T14:21:14.549Z,56.33
2018-02-18T14:23:40.953Z,55.79
2018-02-18T14:26:06.808Z,55.89
2018-02-18T14:28:32.555Z,56.48
2018-02-18T14:30:58.435Z,55.57
2018-02-18T14:33:24.243Z,55.89
2018-02-18T14:35:50.243Z,55.23
2018-02-18T14:38:16.091Z,55.03
2018-02-18T14:40:41.877Z,55.10
2018-02-18T14:46:15.151Z,54.39
2018-02-18T14:48:53.480Z,55.00
2018-02-18T14:51:31.661Z,55.05
2018-02-18T14:54:10.158Z,54.98
2018-02-18T14:56:43.102Z,54.88
2018-02-18T14:59:08.936Z,54.82
2018-02-18T15:01:34.774Z,55.04
2018-02-18T15:04:00.575Z,55.25
2018-02-18T15:06:26.384Z,55.08
2018-02-18T15:08:52.182Z,54.88
2018-02-18T15:11:18.027Z,54.92
2018-02-18T15:13:43.982Z,55.22
2018-02-18T15:16:09.785Z,54.77
2018-02-18T15:18:35.602Z,55.16
2018-02-18T15:21:01.435Z,55.23
2018-02-18T15:23:27.252Z,56.69
2018-02-18T15:25:53.048Z,54.71
2018-02-18T15:28:18.891Z,55.21
2018-02-18T15:30:44.693Z,55.23
2018-02-18T15:33:10.496Z,55.73
2018-02-18T15:35:36.718Z,55.57
2018-02-18T15:38:02.551Z,55.51
2018-02-18T15:40:28.361Z,55.46
2018-02-18T15:42:54.180Z,55.94
2018-02-18T15:45:20.019Z,56.06
2018-02-18T15:47:45.826Z,55.93
2018-02-18T15:50:11.652Z,55.95
2018-02-18T15:52:37.503Z,56.30
2018-02-18T15:55:03.391Z,56.16
2018-02-18T15:57:29.187Z,56.25
2018-02-18T15:59:55.027Z,56.44
2018-02-18T16:02:20.837Z,56.52
2018-02-18T16:04:53.571Z,56.79
2018-02-18T16:07:19.375Z,56.96
2018-02-18T16:09:45.200Z,57.17
2018-02-18T16:12:11.329Z,57.21
2018-02-18T16:14:37.134Z,57.15
2018-02-18T16:17:02.969Z,57.26
2018-02-18T16:19:28.821Z,57.46
2018-02-18T16:21:54.840Z,57.60
2018-02-18T16:24:20.653Z,57.65
2018-02-18T16:26:46.443Z,57.62
2018-02-18T16:29:12.244Z,57.78
2018-02-18T16:34:40.977Z,57.62
2018-02-18T16:37:06.796Z,57.79
2018-02-18T16:39:33.370Z,57.93
2018-02-18T16:41:59.172Z,58.52
2018-02-18T16:44:25.320Z,58.89
2018-02-18T16:46:51.141Z,59.50
2018-02-18T16:49:16.939Z,59.34
2018-02-18T16:51:42.757Z,59.15
2018-02-18T16:54:10.354Z,59.50
2018-02-18T16:56:36.825Z,59.34
2018-02-18T16:59:02.659Z,59.78
2018-02-18T17:01:28.450Z,59.23
2018-02-18T17:03:54.279Z,59.30
2018-02-18T17:06:21.017Z,59.57
2018-02-18T17:08:46.818Z,59.91
2018-02-18T17:11:12.714Z,59.56
2018-02-18T17:13:38.575Z,59.80
2018-02-18T17:16:04.382Z,59.63
2018-02-18T17:18:30.240Z,59.26
2018-02-18T17:20:56.164Z,59.38
2018-02-18T17:23:21.982Z,59.88
2018-02-18T17:25:48.117Z,59.86
2018-02-18T17:28:14.987Z,60.07
2018-02-18T17:30:40.876Z,60.35
2018-02-18T17:33:06.735Z,59.95
2018-02-18T17:35:32.534Z,60.33
2018-02-18T17:37:58.571Z,60.66
2018-02-18T17:40:24.366Z,60.34
2018-02-18T17:42:50.617Z,60.87
2018-02-18T17:45:16.496Z,60.86
2018-02-18T17:47:42.302Z,60.90
2018-02-18T17:50:08.102Z,60.99
2018-02-18T17:52:33.914Z,61.24
2018-02-18T17:54:59.922Z,61.00
2018-02-18T17:57:25.745Z,61.36
2018-02-18T17:59:51.718Z,61.19
2018-02-18T18:02:17.535Z,61.17
2018-02-18T18:04:43.333Z,60.99
2018-02-18T18:07:09.132Z,61.22
2018-02-18T18:09:35.222Z,61.42
2018-02-18T18:12:01.067Z,61.87
2018-02-18T18:14:26.868Z,61.93
2018-02-18T18:16:53.017Z,62.20
2018-02-18T18:19:18.820Z,62.47
2018-02-18T18:21:44.939Z,62.60
2018-02-18T18:24:10.780Z,63.15
2018-02-18T18:26:36.575Z,63.05
2018-02-18T18:29:02.595Z,63.69
2018-02-18T18:31:28.382Z,63.68
2018-02-18T18:33:54.181Z,63.41
2018-02-18T18:36:19.987Z,63.27
2018-02-18T18:38:45.774Z,63.94
2018-02-18T18:41:11.567Z,63.89
2018-02-18T18:43:37.370Z,63.94
2018-02-18T18:46:03.155Z,63.73
2018-02-18T18:48:28.954Z,63.80
2018-02-18T18:50:54.960Z,63.60
2018-02-18T18:53:20.767Z,64.48
2018-02-18T18:55:46.550Z,64.25
2018-02-18T18:58:12.403Z,64.31
2018-02-18T19:00:38.186Z,64.74
2018-02-18T19:03:03.974Z,65.11
2018-02-18T19:05:29.774Z,65.64
2018-02-18T19:07:55.566Z,65.81
2018-02-18T19:10:21.347Z,65.44
2018-02-18T19:12:47.154Z,64.64
2018-02-18T19:15:12.950Z,69.21
2018-02-18T19:17:38.777Z,62.19
2018-02-18T19:20:04.599Z,61.10
2018-02-18T19:22:30.378Z,59.31
2018-02-18T19:24:56.147Z,57.05
2018-02-18T19:27:22.131Z,57.79
2018-02-18T19:29:47.950Z,56.36
2018-02-18T19:32:13.732Z,61.46
2018-02-18T19:34:39.547Z,58.11
2018-02-18T19:37:05.353Z,58.09
2018-02-18T19:39:31.138Z,58.98
2018-02-18T19:41:56.946Z,57.90
2018-02-18T19:44:22.743Z,53.37
2018-02-18T19:46:48.533Z,54.18
2018-02-18T19:49:14.491Z,55.57
2018-02-18T19:51:40.278Z,56.11
2018-02-18T19:54:06.067Z,55.98
2018-02-18T19:56:31.875Z,58.06
2018-02-18T19:58:57.680Z,60.34
2018-02-18T20:01:23.452Z,62.58
2018-02-18T20:03:49.282Z,63.81
2018-02-18T20:06:15.078Z,64.73
2018-02-18T20:08:40.855Z,65.00
2018-02-18T20:11:06.651Z,65.10
2018-02-18T20:13:32.432Z,65.74
2018-02-18T20:15:58.251Z,66.15
2018-02-18T20:18:24.033Z,66.13
2018-02-18T20:20:49.820Z,66.87
2018-02-18T20:23:15.625Z,67.05
2018-02-18T20:25:41.406Z,66.68
2018-02-18T20:28:07.219Z,67.00
2018-02-18T20:30:33.035Z,67.27
2018-02-18T20:32:58.832Z,66.88
2018-02-18T20:35:24.643Z,66.94
2018-02-18T20:37:50.820Z,67.13
2018-02-18T20:40:16.615Z,67.21
2018-02-18T20:42:42.419Z,67.51
2018-02-18T20:45:08.283Z,68.08
2018-02-18T20:47:34.075Z,68.14
2018-02-18T20:50:00.110Z,67.63
2018-02-18T20:52:26.223Z,67.27
2018-02-18T20:54:52.270Z,67.73
2018-02-18T20:57:18.068Z,67.84
2018-02-18T20:59:44.051Z,67.76
2018-02-18T21:02:09.858Z,67.74
2018-02-18T21:04:35.647Z,67.98
2018-02-18T21:07:02.584Z,67.91
2018-02-18T21:09:28.447Z,67.96
2018-02-18T21:11:54.248Z,68.19
2018-02-18T21:14:20.080Z,68.17
2018-02-18T21:16:45.970Z,68.19
2018-02-18T21:19:11.768Z,68.25
2018-02-18T21:21:37.656Z,68.67
2018-02-18T21:24:03.496Z,68.67
2018-02-18T21:26:29.478Z,68.82
2018-02-18T21:28:55.274Z,68.91
2018-02-18T21:31:21.566Z,68.86
2018-02-18T21:33:48.100Z,68.79
2018-02-18T21:36:14.882Z,69.13
2018-02-18T21:38:42.876Z,69.12
2018-02-18T21:41:08.663Z,69.35
2018-02-18T21:43:35.094Z,69.17
2018-02-18T21:46:00.978Z,69.27
2018-02-18T21:48:26.778Z,69.43
2018-02-18T21:50:52.580Z,69.40
2018-02-18T21:53:19.688Z,69.55
2018-02-18T21:55:47.183Z,69.44
2018-02-18T21:58:13.008Z,69.74
2018-02-18T22:00:39.433Z,69.59
2018-02-18T22:03:05.254Z,69.45
2018-02-18T22:05:31.076Z,69.83
2018-02-18T22:07:56.903Z,70.07
2018-02-18T22:10:22.708Z,70.16
2018-02-18T22:12:48.507Z,70.74
2018-02-18T22:15:15.163Z,71.46
2018-02-18T22:17:41.310Z,71.37
2018-02-18T22:20:07.118Z,70.94
2018-02-18T22:22:32.930Z,71.16
2018-02-18T22:24:58.791Z,71.70
2018-02-18T22:27:24.637Z,71.71
2018-02-18T22:29:50.465Z,71.50
2018-02-18T22:32:16.267Z,71.71
2018-02-18T22:34:42.307Z,71.58
2018-02-18T22:37:08.272Z,71.90
2018-02-18T22:39:35.784Z,71.83
2018-02-18T22:42:03.675Z,72.23
2018-02-18T22:44:30.452Z,72.16
2018-02-18T22:46:56.255Z,72.19
2018-02-18T22:49:23.478Z,72.70
2018-02-18T22:51:49.315Z,72.29
2018-02-18T22:54:15.134Z,72.25
2018-02-18T22:56:40.958Z,72.66
2018-02-18T22:59:06.777Z,72.94
2018-02-18T23:01:32.594Z,73.19
2018-02-18T23:03:58.398Z,73.08
2018-02-18T23:06:24.187Z,73.47
2018-02-18T23:08:49.986Z,73.01
2018-02-18T23:11:15.798Z,73.51
2018-02-18T23:13:41.591Z,73.24
2018-02-18T23:16:07.420Z,73.61
2018-02-18T23:18:33.219Z,73.67
2018-02-18T23:21:06.219Z,73.32
2018-02-18T23:23:32.007Z,73.38
2018-02-18T23:25:57.802Z,73.60
2018-02-18T23:28:23.620Z,73.51
2018-02-18T23:30:49.415Z,73.82
2018-02-18T23:33:15.204Z,73.68
2018-02-18T23:35:41.022Z,73.98
2018-02-18T23:38:06.809Z,74.08
2018-02-18T23:40:32.583Z,74.34
2018-02-18T23:42:58.556Z,74.76
2018-02-18T23:45:24.354Z,74.46
2018-02-18T23:47:50.143Z,74.71
2018-02-18T23:50:15.951Z,74.61
2018-02-18T23:52:41.742Z,74.68
2018-02-18T23:55:07.529Z,74.92
2018-02-18T23:57:33.336Z,75.17
2018-02-18T23:59:59.124Z,74.87
